sensor_id;sensor_type;location;lat;lon;timestamp;P1;durP1;ratioP1;P2;durP2;ratioP2
47960;SDS011;33721;48.852;9.936;2022-09-02T00:00:43;15.38;;;9.43;;
47960;SDS011;33721;48.852;9.936;2022-09-02T00:03:11;18.98;;;10.38;;
47960;SDS011;33721;48.852;9.936;2022-09-02T00:05:38;16.63;;;10.48;;
47960;SDS011;33721;48.852;9.936;2022-09-02T00:08:04;14.88;;;9.75;;
47960;SDS011;33721;48.852;9.936;2022-09-02T00:10:31;15.95;;;9.90;;
47960;SDS011;33721;48.852;9.936;2022-09-02T00:12:58;17.95;;;9.82;;
47960;SDS011;33721;48.852;9.936;2022-09-02T00:15:24;15.90;;;9.70;;
47960;SDS011;33721;48.852;9.936;2022-09-02T00:17:50;17.10;;;9.30;;
47960;SDS011;33721;48.852;9.936;2022-09-02T00:20:16;14.50;;;8.77;;
47960;SDS011;33721;48.852;9.936;2022-09-02T00:22:42;13.50;;;8.48;;
47960;SDS011;33721;48.852;9.936;2022-09-02T00:25:08;13.70;;;8.57;;
47960;SDS011;33721;48.852;9.936;2022-09-02T00:27:35;15.82;;;9.63;;
47960;SDS011;33721;48.852;9.936;2022-09-02T00:30:01;13.95;;;8.60;;
47960;SDS011;33721;48.852;9.936;2022-09-02T00:32:27;12.75;;;7.32;;
47960;SDS011;33721;48.852;9.936;2022-09-02T00:34:53;13.35;;;8.13;;
47960;SDS011;33721;48.852;9.936;2022-09-02T00:37:20;13.80;;;8.20;;
47960;SDS011;33721;48.852;9.936;2022-09-02T00:39:45;11.95;;;7.20;;
47960;SDS011;33721;48.852;9.936;2022-09-02T00:42:11;16.88;;;7.65;;
47960;SDS011;33721;48.852;9.936;2022-09-02T00:44:37;11.13;;;7.18;;
47960;SDS011;33721;48.852;9.936;2022-09-02T00:47:02;10.77;;;7.18;;
47960;SDS011;33721;48.852;9.936;2022-09-02T00:49:31;11.30;;;6.70;;
47960;SDS011;33721;48.852;9.936;2022-09-02T00:52:01;10.48;;;6.22;;
47960;SDS011;33721;48.852;9.936;2022-09-02T00:54:44;8.93;;;6.30;;
47960;SDS011;33721;48.852;9.936;2022-09-02T00:57:14;10.23;;;6.10;;
47960;SDS011;33721;48.852;9.936;2022-09-02T01:02:25;8.90;;;6.05;;
47960;SDS011;33721;48.852;9.936;2022-09-02T01:04:55;15.40;;;6.00;;
47960;SDS011;33721;48.852;9.936;2022-09-02T01:07:26;13.07;;;6.38;;
47960;SDS011;33721;48.852;9.936;2022-09-02T01:09:55;12.50;;;7.20;;
47960;SDS011;33721;48.852;9.936;2022-09-02T01:12:22;14.45;;;7.47;;
47960;SDS011;33721;48.852;9.936;2022-09-02T01:14:48;11.73;;;7.50;;
47960;SDS011;33721;48.852;9.936;2022-09-02T01:17:14;12.18;;;7.55;;
47960;SDS011;33721;48.852;9.936;2022-09-02T01:19:45;12.80;;;7.53;;
47960;SDS011;33721;48.852;9.936;2022-09-02T01:22:18;13.15;;;7.60;;
47960;SDS011;33721;48.852;9.936;2022-09-02T01:24:46;13.52;;;7.20;;
47960;SDS011;33721;48.852;9.936;2022-09-02T01:27:14;13.10;;;8.45;;
47960;SDS011;33721;48.852;9.936;2022-09-02T01:29:42;13.00;;;7.88;;
47960;SDS011;33721;48.852;9.936;2022-09-02T01:32:09;11.10;;;7.35;;
47960;SDS011;33721;48.852;9.936;2022-09-02T01:34:35;11.73;;;6.88;;
47960;SDS011;33721;48.852;9.936;2022-09-02T01:37:01;14.13;;;7.00;;
47960;SDS011;33721;48.852;9.936;2022-09-02T01:39:27;9.20;;;5.80;;
47960;SDS011;33721;48.852;9.936;2022-09-02T01:41:53;8.63;;;6.05;;
47960;SDS011;33721;48.852;9.936;2022-09-02T01:44:18;9.68;;;6.00;;
47960;SDS011;33721;48.852;9.936;2022-09-02T01:46:44;10.40;;;6.03;;
47960;SDS011;33721;48.852;9.936;2022-09-02T01:49:10;10.68;;;5.97;;
47960;SDS011;33721;48.852;9.936;2022-09-02T01:51:36;12.68;;;6.35;;
47960;SDS011;33721;48.852;9.936;2022-09-02T01:54:02;9.85;;;6.00;;
47960;SDS011;33721;48.852;9.936;2022-09-02T01:56:28;8.80;;;5.30;;
47960;SDS011;33721;48.852;9.936;2022-09-02T01:58:53;10.68;;;5.75;;
47960;SDS011;33721;48.852;9.936;2022-09-02T02:01:19;10.05;;;6.25;;
47960;SDS011;33721;48.852;9.936;2022-09-02T02:03:45;11.07;;;6.78;;
47960;SDS011;33721;48.852;9.936;2022-09-02T02:06:12;13.32;;;6.13;;
47960;SDS011;33721;48.852;9.936;2022-09-02T02:08:40;10.35;;;6.78;;
47960;SDS011;33721;48.852;9.936;2022-09-02T02:11:07;12.93;;;7.30;;
47960;SDS011;33721;48.852;9.936;2022-09-02T02:13:33;11.80;;;7.28;;
47960;SDS011;33721;48.852;9.936;2022-09-02T02:15:59;12.00;;;7.53;;
47960;SDS011;33721;48.852;9.936;2022-09-02T02:18:26;10.20;;;6.88;;
47960;SDS011;33721;48.852;9.936;2022-09-02T02:20:51;11.52;;;7.80;;
47960;SDS011;33721;48.852;9.936;2022-09-02T02:23:17;11.32;;;7.38;;
47960;SDS011;33721;48.852;9.936;2022-09-02T02:25:43;11.32;;;7.43;;
47960;SDS011;33721;48.852;9.936;2022-09-02T02:28:09;11.57;;;7.57;;
47960;SDS011;33721;48.852;9.936;2022-09-02T02:30:35;9.82;;;6.95;;
47960;SDS011;33721;48.852;9.936;2022-09-02T02:33:00;13.10;;;8.25;;
47960;SDS011;33721;48.852;9.936;2022-09-02T02:35:26;12.23;;;8.05;;
47960;SDS011;33721;48.852;9.936;2022-09-02T02:37:52;12.98;;;7.53;;
47960;SDS011;33721;48.852;9.936;2022-09-02T02:40:19;13.65;;;7.30;;
47960;SDS011;33721;48.852;9.936;2022-09-02T02:42:47;10.60;;;7.70;;
47960;SDS011;33721;48.852;9.936;2022-09-02T02:45:13;11.30;;;7.38;;
47960;SDS011;33721;48.852;9.936;2022-09-02T02:47:40;12.73;;;7.40;;
47960;SDS011;33721;48.852;9.936;2022-09-02T02:50:08;10.50;;;6.50;;
47960;SDS011;33721;48.852;9.936;2022-09-02T02:52:37;12.27;;;7.50;;
47960;SDS011;33721;48.852;9.936;2022-09-02T02:55:04;11.88;;;7.30;;
47960;SDS011;33721;48.852;9.936;2022-09-02T02:57:31;10.52;;;7.00;;
47960;SDS011;33721;48.852;9.936;2022-09-02T03:00:00;13.55;;;7.28;;
47960;SDS011;33721;48.852;9.936;2022-09-02T03:02:30;10.80;;;7.07;;
47960;SDS011;33721;48.852;9.936;2022-09-02T03:04:57;11.65;;;7.22;;
47960;SDS011;33721;48.852;9.936;2022-09-02T03:07:22;14.80;;;8.02;;
47960;SDS011;33721;48.852;9.936;2022-09-02T03:09:48;10.05;;;7.18;;
47960;SDS011;33721;48.852;9.936;2022-09-02T03:12:14;12.77;;;6.45;;
47960;SDS011;33721;48.852;9.936;2022-09-02T03:14:40;9.90;;;6.65;;
47960;SDS011;33721;48.852;9.936;2022-09-02T03:17:06;10.77;;;6.75;;
47960;SDS011;33721;48.852;9.936;2022-09-02T03:19:32;11.02;;;7.15;;
47960;SDS011;33721;48.852;9.936;2022-09-02T03:21:57;11.55;;;6.45;;
47960;SDS011;33721;48.852;9.936;2022-09-02T03:24:23;11.43;;;6.30;;
47960;SDS011;33721;48.852;9.936;2022-09-02T03:26:49;9.65;;;6.20;;
47960;SDS011;33721;48.852;9.936;2022-09-02T03:29:14;9.60;;;5.70;;
47960;SDS011;33721;48.852;9.936;2022-09-02T03:31:40;11.23;;;6.47;;
47960;SDS011;33721;48.852;9.936;2022-09-02T03:34:06;9.30;;;6.18;;
47960;SDS011;33721;48.852;9.936;2022-09-02T03:36:34;10.73;;;6.80;;
47960;SDS011;33721;48.852;9.936;2022-09-02T03:41:28;10.95;;;7.07;;
47960;SDS011;33721;48.852;9.936;2022-09-02T03:43:54;10.52;;;7.05;;
47960;SDS011;33721;48.852;9.936;2022-09-02T03:46:19;11.20;;;7.30;;
47960;SDS011;33721;48.852;9.936;2022-09-02T03:48:45;12.85;;;7.35;;
47960;SDS011;33721;48.852;9.936;2022-09-02T03:51:12;11.25;;;7.40;;
47960;SDS011;33721;48.852;9.936;2022-09-02T03:53:37;12.50;;;7.18;;
47960;SDS011;33721;48.852;9.936;2022-09-02T03:56:05;11.70;;;7.68;;
47960;SDS011;33721;48.852;9.936;2022-09-02T03:58:33;15.27;;;8.50;;
47960;SDS011;33721;48.852;9.936;2022-09-02T04:01:00;13.02;;;7.10;;
47960;SDS011;33721;48.852;9.936;2022-09-02T04:03:25;9.05;;;6.90;;
47960;SDS011;33721;48.852;9.936;2022-09-02T04:05:52;12.05;;;7.88;;
47960;SDS011;33721;48.852;9.936;2022-09-02T04:08:17;12.48;;;8.20;;
47960;SDS011;33721;48.852;9.936;2022-09-02T04:10:44;16.63;;;8.27;;
47960;SDS011;33721;48.852;9.936;2022-09-02T04:13:09;13.43;;;7.95;;
47960;SDS011;33721;48.852;9.936;2022-09-02T04:15:42;12.48;;;8.00;;
47960;SDS011;33721;48.852;9.936;2022-09-02T04:21:34;13.55;;;8.30;;
47960;SDS011;33721;48.852;9.936;2022-09-02T04:24:01;13.00;;;7.60;;
47960;SDS011;33721;48.852;9.936;2022-09-02T04:26:27;12.48;;;8.13;;
47960;SDS011;33721;48.852;9.936;2022-09-02T04:28:53;15.50;;;7.13;;
47960;SDS011;33721;48.852;9.936;2022-09-02T04:31:19;12.05;;;7.93;;
47960;SDS011;33721;48.852;9.936;2022-09-02T04:33:47;11.60;;;7.45;;
47960;SDS011;33721;48.852;9.936;2022-09-02T04:36:13;12.27;;;7.75;;
47960;SDS011;33721;48.852;9.936;2022-09-02T04:38:40;16.40;;;7.85;;
47960;SDS011;33721;48.852;9.936;2022-09-02T04:41:10;13.43;;;7.32;;
47960;SDS011;33721;48.852;9.936;2022-09-02T04:43:38;12.38;;;8.35;;
47960;SDS011;33721;48.852;9.936;2022-09-02T04:46:05;13.15;;;8.43;;
47960;SDS011;33721;48.852;9.936;2022-09-02T04:48:34;13.43;;;8.10;;
47960;SDS011;33721;48.852;9.936;2022-09-02T04:51:08;13.38;;;8.25;;
47960;SDS011;33721;48.852;9.936;2022-09-02T04:53:36;16.17;;;8.25;;
47960;SDS011;33721;48.852;9.936;2022-09-02T04:56:03;12.82;;;8.48;;
47960;SDS011;33721;48.852;9.936;2022-09-02T04:58:30;14.35;;;8.70;;
47960;SDS011;33721;48.852;9.936;2022-09-02T05:00:56;14.15;;;9.18;;
47960;SDS011;33721;48.852;9.936;2022-09-02T05:03:22;15.00;;;8.90;;
47960;SDS011;33721;48.852;9.936;2022-09-02T05:05:57;15.43;;;9.52;;
47960;SDS011;33721;48.852;9.936;2022-09-02T05:08:24;17.70;;;9.73;;
47960;SDS011;33721;48.852;9.936;2022-09-02T05:10:50;14.77;;;9.70;;
47960;SDS011;33721;48.852;9.936;2022-09-02T05:13:17;18.80;;;9.32;;
47960;SDS011;33721;48.852;9.936;2022-09-02T05:15:43;16.05;;;8.68;;
47960;SDS011;33721;48.852;9.936;2022-09-02T05:18:09;12.52;;;8.07;;
47960;SDS011;33721;48.852;9.936;2022-09-02T05:20:38;12.10;;;7.78;;
47960;SDS011;33721;48.852;9.936;2022-09-02T05:23:07;12.80;;;7.72;;
47960;SDS011;33721;48.852;9.936;2022-09-02T05:25:32;15.50;;;8.35;;
47960;SDS011;33721;48.852;9.936;2022-09-02T05:27:58;14.30;;;8.60;;
47960;SDS011;33721;48.852;9.936;2022-09-02T05:30:24;13.73;;;7.82;;
47960;SDS011;33721;48.852;9.936;2022-09-02T05:32:50;13.82;;;7.80;;
47960;SDS011;33721;48.852;9.936;2022-09-02T05:35:16;12.25;;;7.57;;
47960;SDS011;33721;48.852;9.936;2022-09-02T05:37:41;13.15;;;7.70;;
47960;SDS011;33721;48.852;9.936;2022-09-02T05:40:07;12.55;;;8.18;;
47960;SDS011;33721;48.852;9.936;2022-09-02T05:42:34;14.02;;;7.97;;
47960;SDS011;33721;48.852;9.936;2022-09-02T05:45:01;11.98;;;7.75;;
47960;SDS011;33721;48.852;9.936;2022-09-02T05:47:26;12.45;;;7.75;;
47960;SDS011;33721;48.852;9.936;2022-09-02T05:49:52;14.43;;;8.60;;
47960;SDS011;33721;48.852;9.936;2022-09-02T05:52:17;14.15;;;8.73;;
47960;SDS011;33721;48.852;9.936;2022-09-02T05:54:43;16.98;;;9.65;;
47960;SDS011;33721;48.852;9.936;2022-09-02T05:57:11;16.05;;;9.73;;
47960;SDS011;33721;48.852;9.936;2022-09-02T05:59:38;18.08;;;9.43;;
47960;SDS011;33721;48.852;9.936;2022-09-02T06:02:06;16.60;;;8.43;;
47960;SDS011;33721;48.852;9.936;2022-09-02T06:04:37;12.18;;;8.02;;
47960;SDS011;33721;48.852;9.936;2022-09-02T06:07:04;12.20;;;8.25;;
47960;SDS011;33721;48.852;9.936;2022-09-02T06:09:30;13.70;;;7.60;;
47960;SDS011;33721;48.852;9.936;2022-09-02T06:11:56;10.60;;;7.38;;
47960;SDS011;33721;48.852;9.936;2022-09-02T06:14:22;13.68;;;6.40;;
47960;SDS011;33721;48.852;9.936;2022-09-02T06:16:50;10.15;;;6.13;;
47960;SDS011;33721;48.852;9.936;2022-09-02T06:19:17;10.70;;;6.38;;
47960;SDS011;33721;48.852;9.936;2022-09-02T06:21:43;8.68;;;6.22;;
47960;SDS011;33721;48.852;9.936;2022-09-02T06:24:10;10.52;;;5.80;;
47960;SDS011;33721;48.852;9.936;2022-09-02T06:26:38;10.82;;;6.30;;
47960;SDS011;33721;48.852;9.936;2022-09-02T06:29:05;12.73;;;6.00;;
47960;SDS011;33721;48.852;9.936;2022-09-02T06:31:31;8.23;;;5.53;;
47960;SDS011;33721;48.852;9.936;2022-09-02T06:33:58;9.18;;;5.82;;
47960;SDS011;33721;48.852;9.936;2022-09-02T06:36:25;11.98;;;6.68;;
47960;SDS011;33721;48.852;9.936;2022-09-02T06:38:53;9.00;;;5.60;;
47960;SDS011;33721;48.852;9.936;2022-09-02T06:41:21;10.52;;;5.82;;
47960;SDS011;33721;48.852;9.936;2022-09-02T06:43:58;7.97;;;5.82;;
47960;SDS011;33721;48.852;9.936;2022-09-02T06:46:28;10.68;;;5.60;;
47960;SDS011;33721;48.852;9.936;2022-09-02T06:48:56;7.53;;;5.43;;
47960;SDS011;33721;48.852;9.936;2022-09-02T06:51:23;7.55;;;4.88;;
47960;SDS011;33721;48.852;9.936;2022-09-02T06:53:55;7.82;;;4.88;;
47960;SDS011;33721;48.852;9.936;2022-09-02T06:56:21;9.02;;;5.45;;
47960;SDS011;33721;48.852;9.936;2022-09-02T06:58:47;8.10;;;5.13;;
47960;SDS011;33721;48.852;9.936;2022-09-02T07:01:19;12.75;;;5.25;;
47960;SDS011;33721;48.852;9.936;2022-09-02T07:03:47;9.38;;;5.40;;
47960;SDS011;33721;48.852;9.936;2022-09-02T07:06:35;12.13;;;5.13;;
47960;SDS011;33721;48.852;9.936;2022-09-02T07:09:05;9.05;;;5.18;;
47960;SDS011;33721;48.852;9.936;2022-09-02T07:13:59;7.03;;;4.88;;
47960;SDS011;33721;48.852;9.936;2022-09-02T07:16:26;11.00;;;5.20;;
47960;SDS011;33721;48.852;9.936;2022-09-02T07:18:53;11.85;;;4.97;;
47960;SDS011;33721;48.852;9.936;2022-09-02T07:21:20;9.00;;;4.70;;
47960;SDS011;33721;48.852;9.936;2022-09-02T07:23:46;12.40;;;4.88;;
47960;SDS011;33721;48.852;9.936;2022-09-02T07:26:12;6.40;;;4.28;;
47960;SDS011;33721;48.852;9.936;2022-09-02T07:28:40;8.25;;;4.60;;
47960;SDS011;33721;48.852;9.936;2022-09-02T07:31:10;7.40;;;4.15;;
47960;SDS011;33721;48.852;9.936;2022-09-02T07:33:37;4.72;;;3.55;;
47960;SDS011;33721;48.852;9.936;2022-09-02T07:36:03;11.45;;;4.32;;
47960;SDS011;33721;48.852;9.936;2022-09-02T07:38:30;11.75;;;4.05;;
47960;SDS011;33721;48.852;9.936;2022-09-02T07:40:57;6.25;;;3.90;;
47960;SDS011;33721;48.852;9.936;2022-09-02T07:43:25;15.93;;;4.40;;
47960;SDS011;33721;48.852;9.936;2022-09-02T07:45:52;8.27;;;3.83;;
47960;SDS011;33721;48.852;9.936;2022-09-02T07:48:20;8.00;;;3.78;;
47960;SDS011;33721;48.852;9.936;2022-09-02T07:50:46;7.60;;;3.58;;
47960;SDS011;33721;48.852;9.936;2022-09-02T07:53:13;5.07;;;3.25;;
47960;SDS011;33721;48.852;9.936;2022-09-02T07:55:40;6.30;;;3.40;;
47960;SDS011;33721;48.852;9.936;2022-09-02T07:58:07;7.68;;;3.30;;
47960;SDS011;33721;48.852;9.936;2022-09-02T08:00:33;7.00;;;3.05;;
47960;SDS011;33721;48.852;9.936;2022-09-02T08:02:59;5.80;;;3.10;;
47960;SDS011;33721;48.852;9.936;2022-09-02T08:05:26;5.82;;;3.10;;
47960;SDS011;33721;48.852;9.936;2022-09-02T08:07:52;3.97;;;2.92;;
47960;SDS011;33721;48.852;9.936;2022-09-02T08:10:18;4.75;;;2.65;;
47960;SDS011;33721;48.852;9.936;2022-09-02T08:12:44;5.95;;;2.80;;
47960;SDS011;33721;48.852;9.936;2022-09-02T08:15:12;4.22;;;2.90;;
47960;SDS011;33721;48.852;9.936;2022-09-02T08:17:39;8.43;;;2.80;;
47960;SDS011;33721;48.852;9.936;2022-09-02T08:20:06;8.25;;;2.55;;
47960;SDS011;33721;48.852;9.936;2022-09-02T08:22:34;4.68;;;2.65;;
47960;SDS011;33721;48.852;9.936;2022-09-02T08:25:00;4.03;;;2.53;;
47960;SDS011;33721;48.852;9.936;2022-09-02T08:27:27;6.60;;;2.47;;
47960;SDS011;33721;48.852;9.936;2022-09-02T08:29:52;5.63;;;2.30;;
47960;SDS011;33721;48.852;9.936;2022-09-02T08:32:18;5.03;;;2.35;;
47960;SDS011;33721;48.852;9.936;2022-09-02T08:34:44;4.10;;;2.55;;
47960;SDS011;33721;48.852;9.936;2022-09-02T08:37:10;5.78;;;2.45;;
47960;SDS011;33721;48.852;9.936;2022-09-02T08:39:36;4.57;;;2.33;;
47960;SDS011;33721;48.852;9.936;2022-09-02T08:44:35;3.50;;;2.10;;
47960;SDS011;33721;48.852;9.936;2022-09-02T08:47:03;2.80;;;1.98;;
47960;SDS011;33721;48.852;9.936;2022-09-02T08:49:43;5.95;;;2.40;;
47960;SDS011;33721;48.852;9.936;2022-09-02T08:52:24;4.75;;;2.28;;
47960;SDS011;33721;48.852;9.936;2022-09-02T08:55:06;6.43;;;2.20;;
47960;SDS011;33721;48.852;9.936;2022-09-02T08:57:44;3.33;;;1.90;;
47960;SDS011;33721;48.852;9.936;2022-09-02T09:00:10;8.73;;;1.73;;
47960;SDS011;33721;48.852;9.936;2022-09-02T09:10:59;3.10;;;1.80;;
47960;SDS011;33721;48.852;9.936;2022-09-02T09:18:53;4.30;;;1.88;;
47960;SDS011;33721;48.852;9.936;2022-09-02T09:21:30;5.82;;;1.80;;
47960;SDS011;33721;48.852;9.936;2022-09-02T09:23:56;2.72;;;1.73;;
47960;SDS011;33721;48.852;9.936;2022-09-02T09:26:28;5.85;;;1.45;;
47960;SDS011;33721;48.852;9.936;2022-09-02T09:28:56;1.98;;;1.30;;
47960;SDS011;33721;48.852;9.936;2022-09-02T09:31:26;9.27;;;1.67;;
47960;SDS011;33721;48.852;9.936;2022-09-02T09:39:23;2.45;;;1.52;;
47960;SDS011;33721;48.852;9.936;2022-09-02T09:41:57;5.80;;;1.90;;
47960;SDS011;33721;48.852;9.936;2022-09-02T09:44:45;3.33;;;1.90;;
47960;SDS011;33721;48.852;9.936;2022-09-02T09:47:20;5.43;;;1.60;;
47960;SDS011;33721;48.852;9.936;2022-09-02T09:49:50;4.32;;;1.67;;
47960;SDS011;33721;48.852;9.936;2022-09-02T09:52:20;2.65;;;1.50;;
47960;SDS011;33721;48.852;9.936;2022-09-02T09:55:15;5.20;;;1.73;;
47960;SDS011;33721;48.852;9.936;2022-09-02T09:57:44;7.47;;;1.58;;
47960;SDS011;33721;48.852;9.936;2022-09-02T10:00:18;3.03;;;1.40;;
47960;SDS011;33721;48.852;9.936;2022-09-02T10:02:51;4.05;;;1.30;;
47960;SDS011;33721;48.852;9.936;2022-09-02T10:07:54;2.97;;;1.70;;
47960;SDS011;33721;48.852;9.936;2022-09-02T10:10:23;7.15;;;1.65;;
47960;SDS011;33721;48.852;9.936;2022-09-02T10:12:52;7.75;;;1.83;;
47960;SDS011;33721;48.852;9.936;2022-09-02T10:15:41;2.47;;;1.50;;
47960;SDS011;33721;48.852;9.936;2022-09-02T10:18:21;2.67;;;1.30;;
47960;SDS011;33721;48.852;9.936;2022-09-02T10:21:13;2.40;;;1.52;;
47960;SDS011;33721;48.852;9.936;2022-09-02T10:26:42;4.05;;;1.40;;
47960;SDS011;33721;48.852;9.936;2022-09-02T10:31:55;4.00;;;1.15;;
47960;SDS011;33721;48.852;9.936;2022-09-02T10:34:38;2.78;;;1.60;;
47960;SDS011;33721;48.852;9.936;2022-09-02T10:37:30;5.47;;;1.88;;
47960;SDS011;33721;48.852;9.936;2022-09-02T10:40:09;3.40;;;1.40;;
47960;SDS011;33721;48.852;9.936;2022-09-02T10:42:55;2.10;;;1.52;;
47960;SDS011;33721;48.852;9.936;2022-09-02T10:45:47;3.92;;;1.42;;
47960;SDS011;33721;48.852;9.936;2022-09-02T10:54:27;3.17;;;1.80;;
47960;SDS011;33721;48.852;9.936;2022-09-02T10:57:03;3.78;;;1.40;;
47960;SDS011;33721;48.852;9.936;2022-09-02T10:59:55;2.40;;;1.58;;
47960;SDS011;33721;48.852;9.936;2022-09-02T11:02:41;4.15;;;1.50;;
47960;SDS011;33721;48.852;9.936;2022-09-02T11:05:18;3.65;;;1.42;;
47960;SDS011;33721;48.852;9.936;2022-09-02T11:08:05;2.38;;;1.42;;
47960;SDS011;33721;48.852;9.936;2022-09-02T11:10:39;1.98;;;1.38;;
47960;SDS011;33721;48.852;9.936;2022-09-02T11:13:13;1.50;;;1.30;;
47960;SDS011;33721;48.852;9.936;2022-09-02T11:16:02;1.75;;;1.30;;
47960;SDS011;33721;48.852;9.936;2022-09-02T11:21:39;2.17;;;1.40;;
47960;SDS011;33721;48.852;9.936;2022-09-02T11:24:32;3.80;;;1.30;;
47960;SDS011;33721;48.852;9.936;2022-09-02T11:32:40;1.90;;;1.33;;
47960;SDS011;33721;48.852;9.936;2022-09-02T11:35:16;2.38;;;1.35;;
47960;SDS011;33721;48.852;9.936;2022-09-02T11:38:00;1.80;;;1.38;;
47960;SDS011;33721;48.852;9.936;2022-09-02T11:46:50;4.97;;;1.67;;
47960;SDS011;33721;48.852;9.936;2022-09-02T11:52:07;5.25;;;1.50;;
47960;SDS011;33721;48.852;9.936;2022-09-02T11:55:16;3.58;;;1.60;;
47960;SDS011;33721;48.852;9.936;2022-09-02T11:57:50;2.63;;;1.50;;
47960;SDS011;33721;48.852;9.936;2022-09-02T12:00:31;2.13;;;1.40;;
47960;SDS011;33721;48.852;9.936;2022-09-02T12:07:55;1.67;;;1.30;;
47960;SDS011;33721;48.852;9.936;2022-09-02T12:11:09;1.83;;;1.10;;
47960;SDS011;33721;48.852;9.936;2022-09-02T12:21:18;8.07;;;1.33;;
47960;SDS011;33721;48.852;9.936;2022-09-02T12:26:20;6.40;;;1.73;;
47960;SDS011;33721;48.852;9.936;2022-09-02T12:28:52;3.88;;;1.70;;
47960;SDS011;33721;48.852;9.936;2022-09-02T12:42:49;4.10;;;1.80;;
47960;SDS011;33721;48.852;9.936;2022-09-02T12:47:56;6.47;;;1.80;;
47960;SDS011;33721;48.852;9.936;2022-09-02T12:50:27;5.05;;;1.80;;
47960;SDS011;33721;48.852;9.936;2022-09-02T12:55:59;3.85;;;1.50;;
47960;SDS011;33721;48.852;9.936;2022-09-02T12:58:52;4.32;;;1.90;;
47960;SDS011;33721;48.852;9.936;2022-09-02T13:04:16;5.93;;;1.77;;
47960;SDS011;33721;48.852;9.936;2022-09-02T13:07:15;1.88;;;1.63;;
47960;SDS011;33721;48.852;9.936;2022-09-02T13:26:31;4.77;;;1.87;;
47960;SDS011;33721;48.852;9.936;2022-09-02T13:31:59;4.47;;;1.88;;
47960;SDS011;33721;48.852;9.936;2022-09-02T13:34:43;2.28;;;1.77;;
47960;SDS011;33721;48.852;9.936;2022-09-02T13:39:58;8.40;;;1.60;;
47960;SDS011;33721;48.852;9.936;2022-09-02T13:42:28;1.63;;;1.52;;
47960;SDS011;33721;48.852;9.936;2022-09-02T13:45:07;3.72;;;1.70;;
47960;SDS011;33721;48.852;9.936;2022-09-02T13:47:34;5.22;;;1.73;;
47960;SDS011;33721;48.852;9.936;2022-09-02T13:50:00;3.85;;;1.83;;
47960;SDS011;33721;48.852;9.936;2022-09-02T13:52:26;4.30;;;1.80;;
47960;SDS011;33721;48.852;9.936;2022-09-02T13:54:54;2.80;;;1.60;;
47960;SDS011;33721;48.852;9.936;2022-09-02T13:57:26;2.13;;;1.60;;
47960;SDS011;33721;48.852;9.936;2022-09-02T13:59:54;3.35;;;1.65;;
47960;SDS011;33721;48.852;9.936;2022-09-02T14:02:30;2.10;;;1.45;;
47960;SDS011;33721;48.852;9.936;2022-09-02T14:04:58;3.85;;;1.60;;
47960;SDS011;33721;48.852;9.936;2022-09-02T14:07:30;2.35;;;1.58;;
47960;SDS011;33721;48.852;9.936;2022-09-02T14:09:57;3.15;;;1.40;;
47960;SDS011;33721;48.852;9.936;2022-09-02T14:12:26;4.50;;;1.60;;
47960;SDS011;33721;48.852;9.936;2022-09-02T14:14:56;5.07;;;1.50;;
47960;SDS011;33721;48.852;9.936;2022-09-02T14:17:24;3.85;;;1.52;;
47960;SDS011;33721;48.852;9.936;2022-09-02T14:19:51;3.05;;;1.77;;
47960;SDS011;33721;48.852;9.936;2022-09-02T14:22:40;2.30;;;1.50;;
47960;SDS011;33721;48.852;9.936;2022-09-02T14:25:15;2.30;;;1.55;;
47960;SDS011;33721;48.852;9.936;2022-09-02T14:27:59;3.22;;;1.70;;
47960;SDS011;33721;48.852;9.936;2022-09-02T14:33:15;3.42;;;1.70;;
47960;SDS011;33721;48.852;9.936;2022-09-02T14:35:41;4.80;;;1.52;;
47960;SDS011;33721;48.852;9.936;2022-09-02T14:38:23;2.03;;;1.30;;
47960;SDS011;33721;48.852;9.936;2022-09-02T14:40:57;2.08;;;1.70;;
47960;SDS011;33721;48.852;9.936;2022-09-02T14:43:24;7.30;;;1.67;;
47960;SDS011;33721;48.852;9.936;2022-09-02T14:45:51;1.70;;;1.50;;
47960;SDS011;33721;48.852;9.936;2022-09-02T14:48:29;5.25;;;1.50;;
47960;SDS011;33721;48.852;9.936;2022-09-02T14:51:02;7.55;;;1.90;;
47960;SDS011;33721;48.852;9.936;2022-09-02T14:53:30;2.20;;;1.40;;
47960;SDS011;33721;48.852;9.936;2022-09-02T14:55:57;2.30;;;1.60;;
47960;SDS011;33721;48.852;9.936;2022-09-02T14:58:26;2.08;;;1.60;;
47960;SDS011;33721;48.852;9.936;2022-09-02T15:00:53;5.68;;;1.90;;
47960;SDS011;33721;48.852;9.936;2022-09-02T15:03:23;2.53;;;1.70;;
47960;SDS011;33721;48.852;9.936;2022-09-02T15:05:50;5.32;;;2.15;;
47960;SDS011;33721;48.852;9.936;2022-09-02T15:08:18;5.97;;;1.70;;
47960;SDS011;33721;48.852;9.936;2022-09-02T15:10:45;2.70;;;1.50;;
47960;SDS011;33721;48.852;9.936;2022-09-02T15:13:11;6.65;;;2.33;;
47960;SDS011;33721;48.852;9.936;2022-09-02T15:15:46;2.97;;;1.48;;
47960;SDS011;33721;48.852;9.936;2022-09-02T15:18:11;3.83;;;1.50;;
47960;SDS011;33721;48.852;9.936;2022-09-02T15:20:37;3.60;;;1.67;;
47960;SDS011;33721;48.852;9.936;2022-09-02T15:23:02;8.43;;;2.10;;
47960;SDS011;33721;48.852;9.936;2022-09-02T15:25:28;5.07;;;1.60;;
47960;SDS011;33721;48.852;9.936;2022-09-02T15:27:54;2.60;;;1.60;;
47960;SDS011;33721;48.852;9.936;2022-09-02T15:30:20;4.60;;;1.98;;
47960;SDS011;33721;48.852;9.936;2022-09-02T15:32:45;3.25;;;1.58;;
47960;SDS011;33721;48.852;9.936;2022-09-02T15:35:12;2.55;;;1.77;;
47960;SDS011;33721;48.852;9.936;2022-09-02T15:37:37;7.05;;;1.80;;
47960;SDS011;33721;48.852;9.936;2022-09-02T15:40:04;6.47;;;1.70;;
47960;SDS011;33721;48.852;9.936;2022-09-02T15:42:34;5.30;;;1.73;;
47960;SDS011;33721;48.852;9.936;2022-09-02T15:45:02;1.95;;;1.50;;
47960;SDS011;33721;48.852;9.936;2022-09-02T15:47:29;3.15;;;1.80;;
47960;SDS011;33721;48.852;9.936;2022-09-02T15:49:55;2.90;;;1.77;;
47960;SDS011;33721;48.852;9.936;2022-09-02T15:52:24;3.92;;;1.73;;
47960;SDS011;33721;48.852;9.936;2022-09-02T15:54:50;5.05;;;1.80;;
47960;SDS011;33721;48.852;9.936;2022-09-02T15:57:18;5.97;;;2.00;;
47960;SDS011;33721;48.852;9.936;2022-09-02T15:59:43;5.78;;;1.85;;
47960;SDS011;33721;48.852;9.936;2022-09-02T16:02:09;5.28;;;1.58;;
47960;SDS011;33721;48.852;9.936;2022-09-02T16:04:35;4.68;;;1.60;;
47960;SDS011;33721;48.852;9.936;2022-09-02T16:07:00;6.03;;;1.90;;
47960;SDS011;33721;48.852;9.936;2022-09-02T16:09:27;2.22;;;1.90;;
47960;SDS011;33721;48.852;9.936;2022-09-02T16:11:53;4.20;;;1.70;;
47960;SDS011;33721;48.852;9.936;2022-09-02T16:14:22;5.00;;;1.95;;
47960;SDS011;33721;48.852;9.936;2022-09-02T16:16:49;2.38;;;1.67;;
47960;SDS011;33721;48.852;9.936;2022-09-02T16:19:20;1.80;;;1.50;;
47960;SDS011;33721;48.852;9.936;2022-09-02T16:21:48;1.80;;;1.40;;
47960;SDS011;33721;48.852;9.936;2022-09-02T16:24:15;2.90;;;1.65;;
47960;SDS011;33721;48.852;9.936;2022-09-02T16:26:42;3.83;;;1.70;;
47960;SDS011;33721;48.852;9.936;2022-09-02T16:29:09;2.33;;;1.67;;
47960;SDS011;33721;48.852;9.936;2022-09-02T16:31:44;2.38;;;1.85;;
47960;SDS011;33721;48.852;9.936;2022-09-02T16:34:12;7.63;;;1.70;;
47960;SDS011;33721;48.852;9.936;2022-09-02T16:36:39;2.75;;;1.63;;
47960;SDS011;33721;48.852;9.936;2022-09-02T16:39:08;2.88;;;1.85;;
47960;SDS011;33721;48.852;9.936;2022-09-02T16:41:36;7.80;;;1.70;;
47960;SDS011;33721;48.852;9.936;2022-09-02T16:44:14;5.20;;;1.58;;
47960;SDS011;33721;48.852;9.936;2022-09-02T16:46:41;3.97;;;1.63;;
47960;SDS011;33721;48.852;9.936;2022-09-02T16:49:09;3.13;;;1.73;;
47960;SDS011;33721;48.852;9.936;2022-09-02T16:51:35;6.53;;;1.48;;
47960;SDS011;33721;48.852;9.936;2022-09-02T16:54:04;16.30;;;2.33;;
47960;SDS011;33721;48.852;9.936;2022-09-02T16:56:31;9.52;;;1.92;;
47960;SDS011;33721;48.852;9.936;2022-09-02T16:58:59;3.05;;;1.90;;
47960;SDS011;33721;48.852;9.936;2022-09-02T17:01:26;2.92;;;1.58;;